createdAt,value
2018-04-13T00:01:26.406Z,21.63
2018-04-13T00:03:54.027Z,21.97
2018-04-13T00:06:23.012Z,21.47
2018-04-13T00:08:51.361Z,22.67
2018-04-13T00:11:19.024Z,22.30
2018-04-13T00:13:46.888Z,23.10
2018-04-13T00:16:14.454Z,22.80
2018-04-13T00:18:42.084Z,22.87
2018-04-13T00:21:09.677Z,23.60
2018-04-13T00:23:37.265Z,24.37
2018-04-13T00:26:05.633Z,24.97
2018-04-13T00:28:33.247Z,24.93
2018-04-13T00:31:00.833Z,24.27
2018-04-13T00:33:28.421Z,25.40
2018-04-13T00:35:56.828Z,24.80
2018-04-13T00:38:24.417Z,25.30
2018-04-13T00:40:52.310Z,25.20
2018-04-13T00:43:19.924Z,24.97
2018-04-13T00:45:47.504Z,25.97
2018-04-13T00:48:15.061Z,25.57
2018-04-13T00:50:42.847Z,26.07
2018-04-13T00:53:22.242Z,25.40
2018-04-13T00:55:49.868Z,25.97
2018-04-13T00:58:18.247Z,25.17
2018-04-13T01:00:46.591Z,25.63
2018-04-13T01:03:14.180Z,25.30
2018-04-13T01:05:42.552Z,26.67
2018-04-13T01:08:10.897Z,26.93
2018-04-13T01:10:38.499Z,26.03
2018-04-13T01:13:06.909Z,26.50
2018-04-13T01:15:34.487Z,27.13
2018-04-13T01:18:02.089Z,27.20
2018-04-13T01:20:30.429Z,28.17
2018-04-13T01:22:58.002Z,28.13
2018-04-13T01:25:25.648Z,28.27
2018-04-13T01:27:53.236Z,28.93
2018-04-13T01:30:21.600Z,29.40
2018-04-13T01:32:49.227Z,30.13
2018-04-13T01:35:16.808Z,31.47
2018-04-13T01:37:44.375Z,31.27
2018-04-13T01:40:11.971Z,30.33
2018-04-13T01:42:40.308Z,31.53
2018-04-13T01:45:07.868Z,31.90
2018-04-13T01:47:35.476Z,30.70
2018-04-13T01:50:03.135Z,31.20
2018-04-13T01:52:32.175Z,32.03
2018-04-13T01:54:59.813Z,33.50
2018-04-13T01:57:27.374Z,31.90
2018-04-13T01:59:54.948Z,33.37
2018-04-13T02:02:22.536Z,32.67
2018-04-13T02:04:50.827Z,32.43
2018-04-13T02:07:19.166Z,33.77
2018-04-13T02:09:46.761Z,32.60
2018-04-13T02:12:15.048Z,33.23
2018-04-13T02:14:43.411Z,34.03
2018-04-13T02:17:11.079Z,33.57
2018-04-13T02:19:40.405Z,33.93
2018-04-13T02:22:07.982Z,34.70
2018-04-13T02:24:35.564Z,34.47
2018-04-13T02:27:03.186Z,33.27
2018-04-13T02:29:30.755Z,35.80
2018-04-13T02:31:58.335Z,35.90
2018-04-13T02:34:26.062Z,34.17
2018-04-13T02:36:53.602Z,35.27
2018-04-13T02:39:21.949Z,35.87
2018-04-13T02:41:49.539Z,35.87
2018-04-13T02:44:17.864Z,35.27
2018-04-13T02:46:45.481Z,36.20
2018-04-13T02:49:13.146Z,36.07
2018-04-13T02:51:40.897Z,37.63
2018-04-13T02:54:09.256Z,36.50
2018-04-13T02:56:36.842Z,36.43
2018-04-13T02:59:05.356Z,36.90
2018-04-13T03:01:32.940Z,37.10
2018-04-13T03:04:00.545Z,39.57
2018-04-13T03:06:29.387Z,38.23
2018-04-13T03:08:56.991Z,37.43
2018-04-13T03:11:26.012Z,39.27
2018-04-13T03:13:53.700Z,39.13
2018-04-13T03:16:21.301Z,37.23
2018-04-13T03:18:49.674Z,38.40
2018-04-13T03:21:17.249Z,36.87
2018-04-13T03:23:45.747Z,39.10
2018-04-13T03:26:13.358Z,38.30
2018-04-13T03:28:41.140Z,38.40
2018-04-13T03:31:09.569Z,37.73
2018-04-13T03:33:37.167Z,38.83
2018-04-13T03:36:04.744Z,37.67
2018-04-13T03:38:33.117Z,39.83
2018-04-13T03:41:01.473Z,38.17
2018-04-13T03:43:29.095Z,40.40
2018-04-13T03:45:56.725Z,38.23
2018-04-13T03:48:25.051Z,38.13
2018-04-13T03:50:52.690Z,38.53
2018-04-13T03:53:20.260Z,37.73
2018-04-13T03:55:47.829Z,39.10
2018-04-13T03:58:15.429Z,36.03
2018-04-13T04:00:43.767Z,36.90
2018-04-13T04:03:11.607Z,37.00
2018-04-13T04:05:39.167Z,37.83
2018-04-13T04:08:06.746Z,38.20
2018-04-13T04:10:34.477Z,36.93
2018-04-13T04:13:02.051Z,37.00
2018-04-13T04:15:29.630Z,37.10
2018-04-13T04:17:57.219Z,37.73
2018-04-13T04:20:36.671Z,37.17
2018-04-13T04:23:16.805Z,37.70
2018-04-13T04:25:51.900Z,35.87
2018-04-13T04:28:19.488Z,36.77
2018-04-13T04:30:47.072Z,36.67
2018-04-13T04:33:14.672Z,36.53
2018-04-13T04:35:42.260Z,37.17
2018-04-13T04:38:09.888Z,34.90
2018-04-13T04:40:37.451Z,35.53
2018-04-13T04:43:05.026Z,35.67
2018-04-13T04:45:32.702Z,36.00
2018-04-13T04:48:00.306Z,34.70
2018-04-13T04:50:28.704Z,35.33
2018-04-13T04:52:56.344Z,35.53
2018-04-13T04:55:24.706Z,34.50
2018-04-13T04:57:52.425Z,33.33
2018-04-13T05:00:20.011Z,33.80
2018-04-13T05:02:47.575Z,32.40
2018-04-13T05:05:15.408Z,32.23
2018-04-13T05:07:43.002Z,31.90
2018-04-13T05:10:10.597Z,33.10
2018-04-13T05:12:38.961Z,32.17
2018-04-13T05:15:07.296Z,31.27
2018-04-13T05:17:34.902Z,30.50
2018-04-13T05:20:03.448Z,30.27
2018-04-13T05:22:31.092Z,29.70
2018-04-13T05:24:59.353Z,30.43
2018-04-13T05:27:27.889Z,31.63
2018-04-13T05:29:55.459Z,30.20
2018-04-13T05:32:24.726Z,29.60
2018-04-13T05:34:52.291Z,31.37
2018-04-13T05:37:19.942Z,30.93
2018-04-13T05:39:47.535Z,30.90
2018-04-13T05:42:15.860Z,30.73
2018-04-13T05:44:43.467Z,29.33
2018-04-13T05:47:11.023Z,30.20
2018-04-13T05:49:39.908Z,29.17
2018-04-13T05:52:07.518Z,29.07
2018-04-13T05:54:35.138Z,28.37
2018-04-13T05:57:03.493Z,29.23
2018-04-13T05:59:31.076Z,29.10
2018-04-13T06:01:59.418Z,28.87
2018-04-13T06:04:26.988Z,28.90
2018-04-13T06:06:54.909Z,28.40
2018-04-13T06:09:22.500Z,27.63
2018-04-13T06:11:50.082Z,28.30
2018-04-13T06:14:17.663Z,29.37
2018-04-13T06:16:46.039Z,27.83
2018-04-13T06:19:14.376Z,27.10
2018-04-13T06:21:42.117Z,27.73
2018-04-13T06:24:09.702Z,27.47
2018-04-13T06:26:37.257Z,26.77
2018-04-13T06:29:04.858Z,26.33
2018-04-13T06:31:33.199Z,24.87
2018-04-13T06:34:00.792Z,25.20
2018-04-13T06:36:29.128Z,26.10
2018-04-13T06:38:56.765Z,25.43
2018-04-13T06:41:24.364Z,24.53
2018-04-13T06:43:52.110Z,24.77
2018-04-13T06:46:19.735Z,23.23
2018-04-13T06:48:47.350Z,22.97
2018-04-13T06:51:14.954Z,22.47
2018-04-13T06:53:42.585Z,22.37
2018-04-13T06:56:10.152Z,23.40
2018-04-13T06:58:38.640Z,23.73
2018-04-13T07:01:07.043Z,23.60
2018-04-13T07:03:34.872Z,22.73
2018-04-13T07:06:02.427Z,23.27
2018-04-13T07:08:30.830Z,23.13
2018-04-13T07:10:59.220Z,22.70
2018-04-13T07:13:26.868Z,23.53
2018-04-13T07:15:55.243Z,22.90
2018-04-13T07:18:23.579Z,22.23
2018-04-13T07:20:51.207Z,23.23
2018-04-13T07:23:18.821Z,22.57
2018-04-13T07:25:46.412Z,21.97
2018-04-13T07:28:14.023Z,21.37
2018-04-13T07:30:41.636Z,21.47
2018-04-13T07:33:09.418Z,20.43
2018-04-13T07:35:36.989Z,21.30
2018-04-13T07:38:04.605Z,19.53
2018-04-13T07:40:32.227Z,19.70
2018-04-13T07:42:59.798Z,19.90
2018-04-13T07:45:27.737Z,21.37
2018-04-13T07:47:56.131Z,20.50
2018-04-13T07:50:23.701Z,20.20
2018-04-13T07:52:51.341Z,19.70
2018-04-13T07:55:18.924Z,19.97
2018-04-13T07:57:48.010Z,19.17
2018-04-13T08:00:15.658Z,18.97
2018-04-13T08:02:43.271Z,19.63
2018-04-13T08:05:11.604Z,18.83
2018-04-13T08:07:39.220Z,18.73
2018-04-13T08:10:06.776Z,20.30
2018-04-13T08:12:35.237Z,19.13
2018-04-13T08:15:03.710Z,18.93
2018-04-13T08:17:31.288Z,18.03
2018-04-13T08:19:59.618Z,18.17
2018-04-13T08:22:27.262Z,16.83
2018-04-13T08:24:55.644Z,18.37
2018-04-13T08:27:23.243Z,18.30
2018-04-13T08:29:51.600Z,18.47
2018-04-13T08:32:19.227Z,17.67
2018-04-13T08:34:47.704Z,17.43
2018-04-13T08:37:15.918Z,17.57
2018-04-13T08:39:43.625Z,16.80
2018-04-13T08:42:11.202Z,17.03
2018-04-13T08:44:38.790Z,16.20
2018-04-13T08:47:06.654Z,16.73
2018-04-13T08:49:34.237Z,17.00
2018-04-13T08:52:02.080Z,15.37
2018-04-13T08:54:29.650Z,15.13
2018-04-13T08:56:57.224Z,15.63
2018-04-13T08:59:24.923Z,16.30
2018-04-13T09:01:52.554Z,15.50
2018-04-13T09:04:20.901Z,13.73
2018-04-13T09:06:48.776Z,15.37
2018-04-13T09:09:16.406Z,13.53
2018-04-13T09:11:44.019Z,12.87
2018-04-13T09:14:12.371Z,12.80
2018-04-13T09:16:39.980Z,11.73
2018-04-13T09:19:07.588Z,11.90
2018-04-13T09:21:35.155Z,11.60
2018-04-13T09:24:03.530Z,11.93
2018-04-13T09:26:31.136Z,10.87
2018-04-13T09:28:58.739Z,11.27
2018-04-13T09:31:26.356Z,11.53
2018-04-13T09:33:53.916Z,11.20
2018-04-13T09:36:21.531Z,11.60
2018-04-13T09:38:49.116Z,11.73
2018-04-13T09:41:17.665Z,11.10
2018-04-13T09:43:45.271Z,11.67
2018-04-13T09:46:12.915Z,10.90
2018-04-13T09:48:40.465Z,10.00
2018-04-13T09:51:08.075Z,11.57
2018-04-13T09:53:35.741Z,11.40
2018-04-13T09:56:03.302Z,10.40
2018-04-13T09:58:30.880Z,11.37
2018-04-13T10:01:00.290Z,10.33
2018-04-13T10:03:28.120Z,10.47
2018-04-13T10:05:55.764Z,10.47
2018-04-13T10:08:23.373Z,10.37
2018-04-13T10:10:50.958Z,9.73
2018-04-13T10:13:19.708Z,10.27
2018-04-13T10:15:47.384Z,10.80
2018-04-13T10:18:14.928Z,9.90
2018-04-13T10:20:42.511Z,10.50
2018-04-13T10:23:10.364Z,9.87
2018-04-13T10:25:38.095Z,10.70
2018-04-13T10:28:05.685Z,10.33
2018-04-13T10:30:33.303Z,10.63
2018-04-13T10:33:00.877Z,11.63
2018-04-13T10:35:28.473Z,11.13
2018-04-13T10:37:56.071Z,11.03
2018-04-13T10:40:23.948Z,11.10
2018-04-13T10:42:51.522Z,11.43
2018-04-13T10:45:19.120Z,11.70
2018-04-13T10:47:46.699Z,10.10
2018-04-13T10:50:15.061Z,8.90
2018-04-13T10:52:43.706Z,10.53
2018-04-13T10:55:11.332Z,11.27
2018-04-13T10:57:39.688Z,7.53
2018-04-13T11:00:07.266Z,7.00
2018-04-13T11:02:35.626Z,7.40
2018-04-13T11:05:04.002Z,8.30
2018-04-13T11:07:32.427Z,8.03
2018-04-13T11:10:01.034Z,8.67
2018-04-13T11:12:29.764Z,7.93
2018-04-13T11:14:58.160Z,7.83
2018-04-13T11:17:25.733Z,8.87
2018-04-13T11:19:53.323Z,8.30
2018-04-13T11:22:21.071Z,8.50
2018-04-13T11:24:48.684Z,7.10
2018-04-13T11:27:16.307Z,6.00
2018-04-13T11:29:43.889Z,6.13
2018-04-13T11:32:11.983Z,5.93
2018-04-13T11:34:40.502Z,5.70
2018-04-13T11:37:08.673Z,5.77
2018-04-13T11:39:36.249Z,6.07
2018-04-13T11:42:03.862Z,5.23
2018-04-13T11:44:31.465Z,4.93
2018-04-13T11:46:59.030Z,5.10
2018-04-13T11:49:26.600Z,4.97
2018-04-13T11:51:54.413Z,4.77
2018-04-13T11:54:21.984Z,5.40
2018-04-13T11:56:49.633Z,5.23
2018-04-13T11:59:17.189Z,5.20
2018-04-13T12:01:44.766Z,5.03
2018-04-13T12:04:12.386Z,4.63
2018-04-13T12:06:40.729Z,4.50
2018-04-13T12:09:08.406Z,4.80
2018-04-13T12:11:35.959Z,4.93
2018-04-13T12:14:04.367Z,4.67
2018-04-13T12:16:32.840Z,4.63
2018-04-13T12:19:01.173Z,4.40
2018-04-13T12:21:28.770Z,4.73
2018-04-13T12:23:56.368Z,4.43
2018-04-13T12:26:23.966Z,4.50
2018-04-13T12:28:51.531Z,3.97
2018-04-13T12:31:19.349Z,2.97
2018-04-13T12:33:47.691Z,2.40
2018-04-13T12:36:15.339Z,2.10
2018-04-13T12:38:42.917Z,2.20
2018-04-13T12:41:11.307Z,2.40
2018-04-13T12:43:38.910Z,2.30
2018-04-13T12:46:06.854Z,3.00
2018-04-13T12:48:34.500Z,3.03
2018-04-13T12:51:02.849Z,2.53
2018-04-13T12:53:31.977Z,2.87
2018-04-13T12:55:59.578Z,3.60
2018-04-13T12:58:28.068Z,4.37
2018-04-13T13:00:55.829Z,3.30
2018-04-13T13:03:23.414Z,3.27
2018-04-13T13:05:51.075Z,3.33
2018-04-13T13:08:18.863Z,3.63
2018-04-13T13:10:47.204Z,3.93
2018-04-13T13:13:15.077Z,3.80
2018-04-13T13:15:42.709Z,3.97
2018-04-13T13:18:10.299Z,3.97
2018-04-13T13:20:37.856Z,4.90
2018-04-13T13:23:05.446Z,3.93
2018-04-13T13:25:33.834Z,4.17
2018-04-13T13:28:01.412Z,4.27
2018-04-13T13:30:29.114Z,4.40
2018-04-13T13:32:56.707Z,4.33
2018-04-13T13:35:25.711Z,4.10
2018-04-13T13:37:53.309Z,5.43
2018-04-13T13:40:20.875Z,4.30
2018-04-13T13:42:48.505Z,4.33
2018-04-13T13:45:16.077Z,3.90
2018-04-13T13:47:43.694Z,4.87
2018-04-13T13:50:12.065Z,4.37
2018-04-13T13:52:39.770Z,5.43
2018-04-13T13:55:07.358Z,5.80
2018-04-13T13:57:34.946Z,5.00
2018-04-13T14:00:03.418Z,5.23
2018-04-13T14:02:31.790Z,4.90
2018-04-13T14:04:59.720Z,5.60
2018-04-13T14:07:27.308Z,5.20
2018-04-13T14:09:54.902Z,4.53
2018-04-13T14:12:23.412Z,5.33
2018-04-13T14:14:51.062Z,4.50
2018-04-13T14:17:18.633Z,4.53
2018-04-13T14:19:46.246Z,4.90
2018-04-13T14:22:14.602Z,4.60
2018-04-13T14:24:42.250Z,4.60
2018-04-13T14:27:09.871Z,4.10
2018-04-13T14:29:37.491Z,4.17
2018-04-13T14:32:05.076Z,9.17
2018-04-13T14:34:33.430Z,10.53
2018-04-13T14:37:01.053Z,7.93
2018-04-13T14:39:28.655Z,7.30
2018-04-13T14:41:56.283Z,11.73
2018-04-13T14:44:23.871Z,14.80
2018-04-13T14:46:52.639Z,12.53
2018-04-13T14:49:20.619Z,10.30
2018-04-13T14:51:48.258Z,8.90
2018-04-13T14:54:15.913Z,5.80
2018-04-13T14:56:43.646Z,6.23
2018-04-13T14:59:11.215Z,6.47
2018-04-13T15:01:39.082Z,7.40
2018-04-13T15:04:06.844Z,6.33
2018-04-13T15:06:34.446Z,6.30
2018-04-13T15:09:02.060Z,6.37
2018-04-13T15:11:29.723Z,5.30
2018-04-13T15:13:57.316Z,5.03
2018-04-13T15:16:24.910Z,4.70
2018-04-13T15:18:53.289Z,4.53
2018-04-13T15:21:21.703Z,5.13
2018-04-13T15:23:49.291Z,5.20
2018-04-13T15:26:16.869Z,5.37
2018-04-13T15:28:44.463Z,5.10
2018-04-13T15:31:12.875Z,4.93
2018-04-13T15:33:40.535Z,6.00
2018-04-13T15:36:08.105Z,5.93
2018-04-13T15:38:35.962Z,6.33
2018-04-13T15:41:03.759Z,6.47
2018-04-13T15:43:31.348Z,6.20
2018-04-13T15:45:59.747Z,6.23
2018-04-13T15:48:27.307Z,5.60
2018-04-13T15:50:54.888Z,5.70
2018-04-13T15:53:22.501Z,5.90
2018-04-13T15:55:50.840Z,5.77
2018-04-13T15:58:18.401Z,5.33
2018-04-13T16:00:46.350Z,5.30
2018-04-13T16:03:14.008Z,5.83
2018-04-13T16:05:41.588Z,5.70
2018-04-13T16:08:10.046Z,5.40
2018-04-13T16:10:37.646Z,5.80
2018-04-13T16:13:05.441Z,5.53
2018-04-13T16:15:33.072Z,5.60
2018-04-13T16:18:00.652Z,5.60
2018-04-13T16:20:29.035Z,5.63
2018-04-13T16:22:57.375Z,6.20
2018-04-13T16:25:25.026Z,5.97
2018-04-13T16:27:52.749Z,6.40
2018-04-13T16:30:20.328Z,6.17
2018-04-13T16:32:47.949Z,8.30
2018-04-13T16:35:16.574Z,8.53
2018-04-13T16:37:44.187Z,6.87
2018-04-13T16:40:12.641Z,6.37
2018-04-13T16:42:41.208Z,6.77
2018-04-13T16:45:09.128Z,6.70
2018-04-13T16:47:37.503Z,7.63
2018-04-13T16:50:05.851Z,9.40
2018-04-13T16:52:33.483Z,11.60
2018-04-13T16:55:01.273Z,12.57
2018-04-13T16:57:28.991Z,13.77
2018-04-13T16:59:56.603Z,14.83
2018-04-13T17:02:24.191Z,15.33
2018-04-13T17:04:52.572Z,14.53
2018-04-13T17:07:20.191Z,15.33
2018-04-13T17:09:47.903Z,16.20
2018-04-13T17:12:15.643Z,16.03
2018-04-13T17:14:44.009Z,16.27
2018-04-13T17:17:11.644Z,16.83
2018-04-13T17:19:39.205Z,16.37
2018-04-13T17:22:06.777Z,15.90
2018-04-13T17:24:34.379Z,15.83
2018-04-13T17:27:02.998Z,17.20
2018-04-13T17:29:30.749Z,18.03
2018-04-13T17:32:00.374Z,18.93
2018-04-13T17:34:27.938Z,18.63
2018-04-13T17:36:55.573Z,16.30
2018-04-13T17:39:23.156Z,17.13
2018-04-13T17:41:50.791Z,16.17
2018-04-13T17:44:18.409Z,15.80
2018-04-13T17:46:46.781Z,13.87
2018-04-13T17:49:14.765Z,15.00
2018-04-13T17:51:43.677Z,13.67
2018-04-13T17:54:11.317Z,14.40
2018-04-13T17:56:39.822Z,13.23
2018-04-13T17:59:07.402Z,12.13
2018-04-13T18:01:35.435Z,13.80
2018-04-13T18:04:04.048Z,13.47
2018-04-13T18:06:31.921Z,13.23
2018-04-13T18:08:59.731Z,12.73
2018-04-13T18:11:27.814Z,12.63
2018-04-13T18:13:56.768Z,12.10
2018-04-13T18:16:24.516Z,10.77
2018-04-13T18:18:52.882Z,11.20
2018-04-13T18:21:20.472Z,12.13
2018-04-13T18:23:48.099Z,12.20
2018-04-13T18:26:15.683Z,11.20
2018-04-13T18:28:43.647Z,11.10
2018-04-13T18:31:17.747Z,10.17
2018-04-13T18:33:45.475Z,10.60
2018-04-13T18:36:13.988Z,11.00
2018-04-13T18:38:41.615Z,9.53
2018-04-13T18:41:11.358Z,11.67
2018-04-13T18:43:39.004Z,10.97
2018-04-13T18:46:06.653Z,11.00
2018-04-13T18:48:34.267Z,10.47
2018-04-13T18:51:01.868Z,10.40
2018-04-13T18:53:31.144Z,9.83
2018-04-13T18:55:58.774Z,9.60
2018-04-13T18:58:26.431Z,9.40
2018-04-13T19:00:54.033Z,10.53
2018-04-13T19:03:23.790Z,9.67
2018-04-13T19:05:51.409Z,9.77
2018-04-13T19:08:19.791Z,9.60
2018-04-13T19:10:48.161Z,10.53
2018-04-13T19:13:16.724Z,10.10
2018-04-13T19:15:44.299Z,11.40
2018-04-13T19:18:11.896Z,11.57
2018-04-13T19:20:39.549Z,11.90
2018-04-13T19:23:07.144Z,11.87
2018-04-13T19:25:34.758Z,18.53
2018-04-13T19:28:03.164Z,16.60
2018-04-13T19:30:31.721Z,18.03
2018-04-13T19:33:00.081Z,16.00
2018-04-13T19:35:28.714Z,15.27
2018-04-13T19:37:56.408Z,13.70
2018-04-13T19:40:24.011Z,16.50
2018-04-13T19:42:51.634Z,17.37
2018-04-13T19:45:19.380Z,17.47
2018-04-13T19:47:47.049Z,15.37
2018-04-13T19:50:15.076Z,15.07
2018-04-13T19:52:42.799Z,14.20
2018-04-13T19:55:10.454Z,13.13
2018-04-13T19:57:38.135Z,14.10
2018-04-13T20:00:05.739Z,12.30
2018-04-13T20:02:34.063Z,12.10
2018-04-13T20:05:01.725Z,11.93
2018-04-13T20:07:29.315Z,12.77
2018-04-13T20:09:57.475Z,12.67
2018-04-13T20:12:28.788Z,11.50
2018-04-13T20:14:56.490Z,12.53
2018-04-13T20:17:24.084Z,13.23
2018-04-13T20:19:52.530Z,13.83
2018-04-13T20:22:20.663Z,14.80
2018-04-13T20:24:48.242Z,15.87
2018-04-13T20:27:15.927Z,16.50
2018-04-13T20:29:47.795Z,19.73
2018-04-13T20:32:16.157Z,22.83
2018-04-13T20:34:43.799Z,23.47
2018-04-13T20:37:11.434Z,24.33
2018-04-13T20:39:39.034Z,22.33
2018-04-13T20:42:06.640Z,21.83
2018-04-13T20:44:34.248Z,22.53
2018-04-13T20:47:01.940Z,22.47
2018-04-13T20:49:30.548Z,21.80
2018-04-13T20:51:58.118Z,21.20
2018-04-13T20:54:26.121Z,21.23
2018-04-13T20:56:53.863Z,22.43
2018-04-13T20:59:21.512Z,23.03
2018-04-13T21:01:49.209Z,23.13
2018-04-13T21:04:16.800Z,23.13
2018-04-13T21:06:45.183Z,22.53
2018-04-13T21:09:14.318Z,24.83
2018-04-13T21:11:42.110Z,26.40
2018-04-13T21:14:09.721Z,31.07
2018-04-13T21:16:37.318Z,32.20
2018-04-13T21:19:04.950Z,31.33
2018-04-13T21:21:32.553Z,30.83
2018-04-13T21:24:00.132Z,28.77
2018-04-13T21:26:27.808Z,30.63
2018-04-13T21:28:56.161Z,29.20
2018-04-13T21:31:23.730Z,28.83
2018-04-13T21:33:51.416Z,29.40
2018-04-13T21:36:19.017Z,30.47
2018-04-13T21:38:46.612Z,29.33
2018-04-13T21:41:14.288Z,28.17
2018-04-13T21:43:42.620Z,30.23
2018-04-13T21:46:10.190Z,29.07
2018-04-13T21:48:38.107Z,28.90
2018-04-13T21:51:05.837Z,27.10
2018-04-13T21:53:34.394Z,26.33
2018-04-13T21:56:02.021Z,25.53
2018-04-13T21:58:29.847Z,24.40
2018-04-13T22:00:57.440Z,22.03
2018-04-13T22:03:25.006Z,21.77
2018-04-13T22:05:52.618Z,18.80
2018-04-13T22:08:20.216Z,17.00
2018-04-13T22:10:47.840Z,16.03
2018-04-13T22:13:27.201Z,17.27
2018-04-13T22:15:55.564Z,17.87
2018-04-13T22:18:23.949Z,17.27
2018-04-13T22:20:52.371Z,18.80
2018-04-13T22:23:20.028Z,19.87
2018-04-13T22:25:47.602Z,18.77
2018-04-13T22:28:15.250Z,17.43
2018-04-13T22:30:42.826Z,18.70
2018-04-13T22:33:10.431Z,21.90
2018-04-13T22:35:38.811Z,22.63
2018-04-13T22:38:07.162Z,21.07
2018-04-13T22:40:34.814Z,21.50
2018-04-13T22:43:02.429Z,17.43
2018-04-13T22:45:30.017Z,15.17
2018-04-13T22:47:57.801Z,16.57
2018-04-13T22:50:25.533Z,15.70
2018-04-13T22:52:53.108Z,15.10
2018-04-13T22:55:20.756Z,15.20
2018-04-13T22:57:48.358Z,12.97
2018-04-13T23:00:16.710Z,13.40
2018-04-13T23:02:44.603Z,12.90
2018-04-13T23:05:13.035Z,11.13
2018-04-13T23:07:41.511Z,10.40
2018-04-13T23:10:09.102Z,9.63
2018-04-13T23:12:36.828Z,15.50
2018-04-13T23:15:04.449Z,16.40
2018-04-13T23:17:32.028Z,13.87
2018-04-13T23:20:00.596Z,14.10
2018-04-13T23:22:37.852Z,14.87
2018-04-13T23:25:05.653Z,15.17
2018-04-13T23:27:34.023Z,15.23
2018-04-13T23:30:02.432Z,14.23
2018-04-13T23:32:29.990Z,15.77
2018-04-13T23:34:57.563Z,13.57
2018-04-13T23:37:25.326Z,13.20
2018-04-13T23:39:52.886Z,11.73
2018-04-13T23:42:20.514Z,8.90
2018-04-13T23:44:48.880Z,7.93
2018-04-13T23:47:17.229Z,7.53
2018-04-13T23:49:44.826Z,6.27
2018-04-13T23:52:15.073Z,6.30
2018-04-13T23:54:42.638Z,5.50
2018-04-13T23:57:10.239Z,8.37
2018-04-13T23:59:38.390Z,7.13
